Time;durP1;ratioP1;P1;durP2;ratioP2;P2;SDS_P1;SDS_P2;PMS_P1;PMS_P2;Temp;Humidity;BMP_temperature;BMP_pressure;BME280_temperature;BME280_humidity;BME280_pressure;Samples;Min_cycle;Max_cycle;Signal;HPM_P1;HPM_P2
2023/03/08 00:01:26;;;;;;;4.87;3.83;;;3.10;99.90;;;;;;4995859;28;20188;-69
2023/03/08 00:04:00;;;;;;;6.17;4.23;;;3.10;99.90;;;;;;4992361;28;20210;-68
2023/03/08 00:06:26;;;;;;;4.73;3.50;;;3.10;99.90;;;;;;4997183;28;20243;-67
2023/03/08 00:09:04;;;;;;;5.50;4.23;;;3.10;99.90;;;;;;4994762;28;20179;-66
2023/03/08 00:11:33;;;;;;;6.10;3.57;;;3.10;99.90;;;;;;4997780;28;20171;-70
2023/03/08 00:14:00;;;;;;;6.10;4.47;;;3.10;99.90;;;;;;4997690;28;20242;-69
2023/03/08 00:16:28;;;;;;;5.30;3.83;;;3.10;99.90;;;;;;4997594;28;20205;-68
2023/03/08 00:18:54;;;;;;;5.97;4.00;;;3.10;99.90;;;;;;4997519;28;20179;-68
2023/03/08 00:21:23;;;;;;;4.90;3.63;;;3.10;99.90;;;;;;4997509;28;20191;-69
2023/03/08 00:23:52;;;;;;;4.97;3.60;;;3.20;99.90;;;;;;4999835;28;20254;-63
2023/03/08 00:26:20;;;;;;;4.93;3.60;;;3.20;99.90;;;;;;4997535;28;20217;-69
2023/03/08 00:28:48;;;;;;;4.60;3.60;;;3.20;99.90;;;;;;5000543;28;20214;-68
2023/03/08 00:31:22;;;;;;;5.00;3.30;;;3.20;99.90;;;;;;5017062;28;20186;-69
2023/03/08 00:33:52;;;;;;;5.23;3.60;;;3.20;99.90;;;;;;5016919;28;20174;-68
2023/03/08 00:36:24;;;;;;;4.27;3.33;;;3.20;99.90;;;;;;5002400;28;20282;-69
2023/03/08 00:38:57;;;;;;;4.57;3.30;;;3.20;99.90;;;;;;4994029;28;20254;-67
2023/03/08 00:41:23;;;;;;;4.90;3.27;;;3.20;99.90;;;;;;4991455;28;20180;-67
2023/03/08 00:43:49;;;;;;;4.77;3.10;;;3.20;99.90;;;;;;4995279;28;20248;-68
2023/03/08 00:46:15;;;;;;;3.27;2.50;;;3.20;99.90;;;;;;4993033;28;20176;-65
2023/03/08 00:48:41;;;;;;;5.50;2.83;;;3.20;99.90;;;;;;4994994;28;20214;-69
2023/03/08 00:51:11;;;;;;;3.80;2.60;;;3.20;99.90;;;;;;4994542;28;20203;-69
2023/03/08 00:53:36;;;;;;;4.53;2.80;;;3.30;99.90;;;;;;4995894;28;20179;-70
2023/03/08 00:56:02;;;;;;;3.63;2.53;;;3.20;99.90;;;;;;4998733;28;20217;-68
2023/03/08 00:58:29;;;;;;;3.97;2.40;;;3.20;99.90;;;;;;4993055;28;20186;-69
2023/03/08 01:00:58;;;;;;;2.77;2.20;;;3.20;99.90;;;;;;4993912;28;20175;-69
2023/03/08 01:03:24;;;;;;;3.10;2.33;;;3.20;99.90;;;;;;4994905;28;20496;-63
2023/03/08 01:05:53;;;;;;;2.87;2.10;;;3.20;99.90;;;;;;4994865;28;20508;-66
2023/03/08 01:08:20;;;;;;;2.70;2.30;;;3.20;99.90;;;;;;4993672;28;20473;-69
2023/03/08 01:10:50;;;;;;;3.00;2.17;;;3.20;99.90;;;;;;4994381;28;20199;-68
2023/03/08 01:13:17;;;;;;;2.77;2.30;;;3.20;99.90;;;;;;4994895;28;20178;-68
2023/03/08 01:15:48;;;;;;;3.50;2.27;;;3.20;99.90;;;;;;4992037;28;20199;-67
2023/03/08 01:18:14;;;;;;;3.80;2.90;;;3.20;99.90;;;;;;4993649;28;20192;-68
2023/03/08 01:20:43;;;;;;;3.80;2.57;;;3.20;99.90;;;;;;4994250;28;20207;-67
2023/03/08 01:23:12;;;;;;;3.60;2.53;;;3.20;99.90;;;;;;4993156;28;20196;-65
2023/03/08 01:25:38;;;;;;;3.33;2.57;;;3.20;99.90;;;;;;5009333;28;20274;-67
2023/03/08 01:28:04;;;;;;;3.43;2.43;;;3.20;99.90;;;;;;4992990;28;20222;-67
2023/03/08 01:30:31;;;;;;;3.40;2.40;;;3.20;99.90;;;;;;4991429;28;20194;-68
2023/03/08 01:32:57;;;;;;;3.77;2.60;;;3.20;99.90;;;;;;4992673;28;20171;-68
2023/03/08 01:35:22;;;;;;;3.17;2.47;;;3.30;99.90;;;;;;4992735;28;20205;-68
2023/03/08 01:37:52;;;;;;;3.20;2.30;;;3.30;99.90;;;;;;4994079;28;20250;-68
2023/03/08 01:40:17;;;;;;;3.87;2.33;;;3.30;99.90;;;;;;4990548;28;20183;-68
2023/03/08 01:42:45;;;;;;;3.17;2.70;;;3.30;99.90;;;;;;4994988;28;20267;-68
2023/03/08 01:45:49;;;;;;;3.43;2.50;;;3.30;99.90;;;;;;5009941;28;20222;-67
2023/03/08 01:48:16;;;;;;;2.73;2.37;;;3.30;99.90;;;;;;4985029;28;20179;-67
2023/03/08 01:50:45;;;;;;;2.97;2.50;;;3.30;99.90;;;;;;4992169;28;20197;-67
2023/03/08 01:53:12;;;;;;;3.83;2.60;;;3.30;99.90;;;;;;4990446;28;20215;-67
2023/03/08 01:55:40;;;;;;;4.17;2.50;;;3.30;99.90;;;;;;4993021;28;20219;-68
2023/03/08 01:58:07;;;;;;;2.63;2.17;;;3.30;99.90;;;;;;4991684;28;20902;-66
2023/03/08 02:00:33;;;;;;;3.30;2.20;;;3.30;99.90;;;;;;4992158;28;20203;-67
2023/03/08 02:03:07;;;;;;;2.87;2.10;;;3.30;99.90;;;;;;4993099;28;20180;-67
2023/03/08 02:05:40;;;;;;;3.67;2.20;;;3.40;99.90;;;;;;4994275;28;20182;-67
2023/03/08 02:08:06;;;;;;;3.23;2.47;;;3.40;99.90;;;;;;4995649;28;20201;-67
2023/03/08 02:10:36;;;;;;;3.07;2.30;;;3.40;99.90;;;;;;4997290;28;20184;-68
2023/03/08 02:13:07;;;;;;;2.60;2.20;;;3.40;99.90;;;;;;4992731;28;20180;-67
2023/03/08 02:15:35;;;;;;;2.67;2.20;;;3.40;99.90;;;;;;4995702;28;20277;-67
2023/03/08 02:18:01;;;;;;;3.23;2.47;;;3.40;99.90;;;;;;4997072;28;20179;-66
2023/03/08 02:20:38;;;;;;;3.23;2.33;;;3.40;99.90;;;;;;5000825;28;20210;-67
2023/03/08 02:23:24;;;;;;;3.43;2.70;;;3.50;99.90;;;;;;5007890;28;20192;-67
2023/03/08 02:26:01;;;;;;;3.53;2.63;;;3.50;99.90;;;;;;4989630;28;20213;-67
2023/03/08 02:28:31;;;;;;;3.13;2.33;;;3.50;99.90;;;;;;5009990;28;20210;-66
2023/03/08 02:30:57;;;;;;;6.90;2.57;;;3.50;99.90;;;;;;4990506;28;20184;-67
2023/03/08 02:33:23;;;;;;;3.50;2.80;;;3.50;99.90;;;;;;4989821;28;20205;-68
2023/03/08 02:35:51;;;;;;;3.27;2.57;;;3.50;99.90;;;;;;4996998;28;20233;-68
2023/03/08 02:38:19;;;;;;;3.60;2.80;;;3.50;99.90;;;;;;4994260;28;20187;-68
2023/03/08 02:40:50;;;;;;;3.70;2.77;;;3.50;99.90;;;;;;4990928;28;20234;-68
2023/03/08 02:43:17;;;;;;;4.23;3.10;;;3.50;99.90;;;;;;4991805;28;20179;-68
2023/03/08 02:45:42;;;;;;;4.20;3.03;;;3.50;99.90;;;;;;5004332;28;20183;-68
2023/03/08 02:48:11;;;;;;;4.43;3.20;;;3.40;99.90;;;;;;4993857;28;20214;-68
2023/03/08 02:50:36;;;;;;;4.60;3.30;;;3.40;99.90;;;;;;4989248;28;20187;-69
2023/03/08 02:53:03;;;;;;;3.93;3.20;;;3.40;99.90;;;;;;4990620;28;20191;-68
2023/03/08 02:55:34;;;;;;;3.60;2.83;;;3.40;99.90;;;;;;4992335;28;20217;-67
2023/03/08 02:58:01;;;;;;;3.97;2.80;;;3.40;99.90;;;;;;4994823;28;20206;-67
2023/03/08 03:00:27;;;;;;;3.77;2.90;;;3.40;99.90;;;;;;4991541;28;20172;-66
2023/03/08 03:02:53;;;;;;;4.20;3.10;;;3.40;99.90;;;;;;4993253;28;20198;-67
2023/03/08 03:05:18;;;;;;;4.30;2.93;;;3.40;99.90;;;;;;4993652;28;20191;-67
2023/03/08 03:07:44;;;;;;;4.43;3.10;;;3.40;99.90;;;;;;4991018;28;20203;-67
2023/03/08 03:10:13;;;;;;;3.57;2.87;;;3.40;99.90;;;;;;4993212;28;20192;-66
2023/03/08 03:12:39;;;;;;;4.10;2.70;;;3.40;99.90;;;;;;5005743;28;20198;-64
2023/03/08 03:15:09;;;;;;;4.27;3.37;;;3.30;99.90;;;;;;4993205;28;20197;-68
2023/03/08 03:17:39;;;;;;;4.47;3.57;;;3.30;99.90;;;;;;4990517;28;20211;-67
2023/03/08 03:20:09;;;;;;;4.53;3.33;;;3.40;99.90;;;;;;5006389;28;20179;-67
2023/03/08 03:22:40;;;;;;;5.37;3.60;;;3.30;99.90;;;;;;4992023;28;20180;-67
2023/03/08 03:25:06;;;;;;;5.63;4.00;;;3.30;99.90;;;;;;5007827;28;20195;-67
2023/03/08 03:27:32;;;;;;;5.77;3.97;;;3.30;99.90;;;;;;4994871;28;20176;-65
2023/03/08 03:30:00;;;;;;;5.80;4.10;;;3.30;99.90;;;;;;4995021;28;20190;-67
2023/03/08 03:32:26;;;;;;;5.23;3.80;;;3.20;99.90;;;;;;4995163;28;20260;-68
2023/03/08 03:34:54;;;;;;;7.17;4.60;;;3.30;99.90;;;;;;4993422;28;20274;-66
2023/03/08 03:37:22;;;;;;;5.63;4.43;;;3.20;99.90;;;;;;4994415;28;20218;-67
2023/03/08 03:39:48;;;;;;;6.77;4.80;;;3.20;99.90;;;;;;4991788;28;20279;-66
2023/03/08 03:42:13;;;;;;;6.27;4.23;;;3.20;99.90;;;;;;4991906;28;20296;-63
2023/03/08 03:44:39;;;;;;;6.50;4.80;;;3.30;99.90;;;;;;4993458;28;20179;-68
2023/03/08 03:47:05;;;;;;;7.50;4.77;;;3.20;99.90;;;;;;4996551;28;20179;-67
2023/03/08 03:49:30;;;;;;;6.87;4.50;;;3.20;99.90;;;;;;4991993;28;20190;-67
2023/03/08 03:51:56;;;;;;;8.23;4.87;;;3.10;99.90;;;;;;4996236;28;20192;-68
2023/03/08 03:54:24;;;;;;;7.47;5.17;;;3.20;99.90;;;;;;4994650;28;20195;-68
2023/03/08 03:56:50;;;;;;;6.90;4.80;;;3.10;99.90;;;;;;4994317;28;20261;-67
2023/03/08 03:59:15;;;;;;;8.10;5.40;;;3.00;99.90;;;;;;4993627;28;20207;-68
2023/03/08 04:01:41;;;;;;;5.83;4.30;;;3.00;99.90;;;;;;4995296;28;20195;-67
2023/03/08 04:04:08;;;;;;;6.23;4.03;;;3.00;99.90;;;;;;4992610;28;20211;-67
2023/03/08 04:06:34;;;;;;;4.93;3.33;;;3.00;99.90;;;;;;4978616;28;20222;-68
2023/03/08 04:09:04;;;;;;;3.47;2.60;;;3.00;99.90;;;;;;4978855;28;20176;-67
2023/03/08 04:11:36;;;;;;;3.47;2.60;;;2.90;99.90;;;;;;5013839;28;20269;-67
2023/03/08 04:14:05;;;;;;;2.67;2.00;;;2.90;99.90;;;;;;5015571;28;20298;-64
2023/03/08 04:16:33;;;;;;;2.90;1.80;;;2.90;99.90;;;;;;4997963;28;20203;-67
2023/03/08 04:19:02;;;;;;;2.50;1.90;;;2.80;99.90;;;;;;5009607;28;20238;-68
2023/03/08 04:21:29;;;;;;;2.67;1.93;;;2.80;99.90;;;;;;5017933;28;20289;-68
2023/03/08 04:23:55;;;;;;;1.73;1.30;;;2.80;99.90;;;;;;4997591;28;20183;-68
2023/03/08 04:26:24;;;;;;;1.87;1.40;;;2.80;99.90;;;;;;4996979;28;20201;-66
2023/03/08 04:28:50;;;;;;;2.40;1.60;;;2.70;99.90;;;;;;4997121;28;20444;-67
2023/03/08 04:31:22;;;;;;;1.73;1.43;;;2.70;99.90;;;;;;4997276;28;20180;-68
2023/03/08 04:33:49;;;;;;;1.57;1.27;;;2.70;99.90;;;;;;4998278;28;20207;-69
2023/03/08 04:36:15;;;;;;;1.70;1.30;;;2.70;99.90;;;;;;5016142;28;20210;-69
2023/03/08 04:38:42;;;;;;;2.53;1.57;;;2.70;99.90;;;;;;5003744;28;20234;-66
2023/03/08 04:41:14;;;;;;;1.70;1.33;;;2.70;99.90;;;;;;4990815;28;20192;-64
2023/03/08 04:43:48;;;;;;;1.90;1.43;;;2.60;99.90;;;;;;4993636;28;20239;-69
2023/03/08 04:46:14;;;;;;;2.17;1.60;;;2.60;99.90;;;;;;4991230;28;20180;-68
2023/03/08 04:48:43;;;;;;;2.80;1.70;;;2.60;99.90;;;;;;4995138;28;20207;-67
2023/03/08 04:51:11;;;;;;;2.57;2.10;;;2.60;99.90;;;;;;4989970;28;20179;-68
2023/03/08 04:53:44;;;;;;;2.97;2.13;;;2.60;99.90;;;;;;4994605;28;20187;-68
2023/03/08 04:56:12;;;;;;;2.17;1.77;;;2.60;99.90;;;;;;4994474;28;20203;-68
2023/03/08 04:58:38;;;;;;;2.50;1.90;;;2.50;99.90;;;;;;4996127;28;20190;-67
2023/03/08 05:01:21;;;;;;;2.47;1.73;;;2.50;99.90;;;;;;4989608;28;20180;-69
2023/03/08 05:03:51;;;;;;;3.27;2.00;;;2.50;99.90;;;;;;4993782;28;20195;-68
2023/03/08 05:06:17;;;;;;;2.30;1.73;;;2.50;99.90;;;;;;5005581;28;20363;-66
2023/03/08 05:08:43;;;;;;;3.40;2.10;;;2.50;99.90;;;;;;4988154;28;20519;-68
2023/03/08 05:11:20;;;;;;;2.63;2.10;;;2.50;99.90;;;;;;4993910;28;20250;-67
2023/03/08 05:13:46;;;;;;;2.70;1.73;;;2.50;99.90;;;;;;4994410;28;20175;-65
2023/03/08 05:16:14;;;;;;;2.73;1.90;;;2.50;99.90;;;;;;4997036;28;20218;-67
2023/03/08 05:18:42;;;;;;;2.87;2.03;;;2.50;99.90;;;;;;4990720;28;20180;-67
2023/03/08 05:21:19;;;;;;;3.03;2.20;;;2.50;99.90;;;;;;4992595;28;20229;-69
2023/03/08 05:23:45;;;;;;;3.00;2.20;;;2.50;99.90;;;;;;5008186;28;20206;-67
2023/03/08 05:26:14;;;;;;;2.83;2.23;;;2.40;99.90;;;;;;4994115;28;20180;-66
2023/03/08 05:28:42;;;;;;;3.80;2.40;;;2.50;99.90;;;;;;5002337;28;20199;-68
2023/03/08 05:31:12;;;;;;;2.67;2.17;;;2.40;99.90;;;;;;4992484;28;20229;-70
2023/03/08 05:33:45;;;;;;;3.17;2.23;;;2.40;99.90;;;;;;4992538;28;20287;-75
2023/03/08 05:36:14;;;;;;;2.80;2.33;;;2.50;99.90;;;;;;4993139;28;20231;-76
2023/03/08 05:38:45;;;;;;;3.30;2.70;;;2.40;99.90;;;;;;4995367;28;20243;-68
2023/03/08 05:41:15;;;;;;;3.40;2.50;;;2.50;99.90;;;;;;5003346;28;20202;-75
2023/03/08 05:43:44;;;;;;;4.07;2.80;;;2.50;99.90;;;;;;5001525;28;20203;-77
2023/03/08 05:46:16;;;;;;;3.50;2.70;;;2.50;99.90;;;;;;4990470;28;20184;-71
2023/03/08 05:48:42;;;;;;;3.60;2.83;;;2.50;99.90;;;;;;5002344;28;20183;-73
2023/03/08 05:51:14;;;;;;;5.00;3.37;;;2.60;99.90;;;;;;4991880;28;20318;-76
2023/03/08 05:53:43;;;;;;;4.27;3.20;;;2.50;99.90;;;;;;4992427;28;20273;-69
2023/03/08 05:56:11;;;;;;;5.47;3.93;;;2.60;99.90;;;;;;4988442;28;20202;-68
2023/03/08 05:58:37;;;;;;;6.83;4.13;;;2.50;99.90;;;;;;4993900;28;20294;-75
2023/03/08 06:01:15;;;;;;;5.80;3.77;;;2.60;99.90;;;;;;4993392;28;20186;-78
2023/03/08 06:03:42;;;;;;;5.07;3.57;;;2.50;99.90;;;;;;4993684;28;20223;-78
2023/03/08 06:06:10;;;;;;;5.97;4.03;;;2.50;99.90;;;;;;4993449;28;20249;-75
2023/03/08 06:08:36;;;;;;;6.40;4.17;;;2.60;99.90;;;;;;4993015;28;20310;-76
2023/03/08 06:11:02;;;;;;;4.73;3.57;;;2.50;99.90;;;;;;4994802;28;20219;-74
2023/03/08 06:13:29;;;;;;;4.40;3.47;;;2.50;99.90;;;;;;4995562;28;20274;-75
2023/03/08 06:15:56;;;;;;;4.70;3.70;;;2.50;99.90;;;;;;4995043;28;20203;-78
2023/03/08 06:18:26;;;;;;;5.83;3.87;;;2.50;99.90;;;;;;4991768;28;20196;-76
2023/03/08 06:21:15;;;;;;;5.30;3.80;;;2.50;99.90;;;;;;4994587;28;20195;-76
2023/03/08 06:23:47;;;;;;;5.80;4.10;;;2.50;99.90;;;;;;4995219;28;20242;-73
2023/03/08 06:26:14;;;;;;;7.27;4.53;;;2.50;99.90;;;;;;4997782;28;20183;-76
2023/03/08 06:28:40;;;;;;;6.33;4.10;;;2.50;99.90;;;;;;4995216;28;20471;-76
2023/03/08 06:31:12;;;;;;;5.87;4.17;;;2.50;99.90;;;;;;4994167;28;20175;-72
2023/03/08 06:33:38;;;;;;;6.90;4.53;;;2.50;99.90;;;;;;4994554;28;20218;-73
2023/03/08 06:36:10;;;;;;;6.37;4.50;;;2.50;99.90;;;;;;4998343;28;20450;-69
2023/03/08 06:38:37;;;;;;;6.10;4.50;;;2.50;99.90;;;;;;4988598;28;20238;-69
2023/03/08 06:41:04;;;;;;;5.93;4.27;;;2.50;99.90;;;;;;4992359;28;20410;-72
2023/03/08 06:43:30;;;;;;;6.67;4.23;;;2.40;99.90;;;;;;4990387;28;20171;-73
2023/03/08 06:45:56;;;;;;;5.63;3.93;;;2.40;99.90;;;;;;4989810;28;20254;-75
2023/03/08 06:48:25;;;;;;;6.70;4.40;;;2.40;99.90;;;;;;4992441;28;20179;-75
2023/03/08 06:50:53;;;;;;;6.43;4.50;;;2.40;99.90;;;;;;4991241;28;20195;-76
2023/03/08 06:53:18;;;;;;;6.27;4.47;;;2.40;99.90;;;;;;4993474;28;20277;-76
2023/03/08 06:55:44;;;;;;;7.93;4.53;;;2.40;99.90;;;;;;4988927;28;20188;-76
2023/03/08 06:58:12;;;;;;;6.13;4.20;;;2.40;99.90;;;;;;5005476;28;20217;-72
2023/03/08 07:00:38;;;;;;;5.40;3.97;;;2.40;99.90;;;;;;4989770;28;20196;-74
2023/03/08 07:03:06;;;;;;;6.53;4.37;;;2.40;99.90;;;;;;4994262;28;20207;-70
2023/03/08 07:05:34;;;;;;;5.83;4.57;;;2.40;99.90;;;;;;4997607;28;20190;-75
2023/03/08 07:07:59;;;;;;;5.33;3.70;;;2.40;99.90;;;;;;5003206;28;20204;-75
2023/03/08 07:10:27;;;;;;;5.90;3.60;;;2.40;99.90;;;;;;4994058;28;20234;-75
2023/03/08 07:12:53;;;;;;;6.27;4.40;;;2.40;99.90;;;;;;5006331;28;20179;-71
2023/03/08 07:15:21;;;;;;;5.83;4.23;;;2.40;99.90;;;;;;4991951;28;20176;-73
2023/03/08 07:17:51;;;;;;;5.70;4.33;;;2.40;99.90;;;;;;4998196;28;20215;-76
2023/03/08 07:20:21;;;;;;;5.40;4.10;;;2.50;99.90;;;;;;4995014;28;20179;-69
2023/03/08 07:22:49;;;;;;;4.67;3.67;;;2.50;99.90;;;;;;4998003;28;20209;-77
2023/03/08 07:25:19;;;;;;;6.90;4.27;;;2.50;99.90;;;;;;4992760;28;20184;-79
2023/03/08 07:27:47;;;;;;;4.80;3.70;;;2.60;99.90;;;;;;5009747;28;20211;-76
2023/03/08 07:30:15;;;;;;;7.10;4.33;;;2.60;99.90;;;;;;4996755;28;20211;-73
2023/03/08 07:32:41;;;;;;;6.27;4.60;;;2.60;99.90;;;;;;5008354;28;20218;-78
2023/03/08 07:35:11;;;;;;;7.00;4.30;;;2.60;99.90;;;;;;4995554;28;20206;-76
2023/03/08 07:37:40;;;;;;;6.20;4.67;;;2.70;99.90;;;;;;4996273;28;20215;-76
2023/03/08 07:40:07;;;;;;;5.80;4.43;;;2.70;99.90;;;;;;4996185;28;20179;-68
2023/03/08 07:42:34;;;;;;;7.17;4.70;;;2.70;99.90;;;;;;4991405;28;20221;-72
2023/03/08 07:45:00;;;;;;;6.00;4.43;;;2.70;99.90;;;;;;4998703;28;20175;-71
2023/03/08 07:47:26;;;;;;;5.50;4.50;;;2.80;99.90;;;;;;4996517;28;20503;-72
2023/03/08 07:49:51;;;;;;;7.13;5.43;;;2.80;99.90;;;;;;4993394;28;20258;-70
2023/03/08 07:52:17;;;;;;;6.27;4.43;;;2.80;99.90;;;;;;4995218;28;20191;-71
2023/03/08 07:54:45;;;;;;;6.13;4.33;;;2.80;99.90;;;;;;4995961;28;20213;-70
2023/03/08 07:57:17;;;;;;;5.87;4.60;;;2.90;99.90;;;;;;4996493;28;20206;-69
2023/03/08 07:59:42;;;;;;;5.83;4.37;;;2.90;99.90;;;;;;4994951;28;20192;-71
2023/03/08 08:02:12;;;;;;;6.27;4.43;;;2.90;99.90;;;;;;4993901;28;20254;-71
2023/03/08 08:04:41;;;;;;;5.27;4.00;;;3.00;99.90;;;;;;4990275;28;20176;-71
2023/03/08 08:07:12;;;;;;;5.20;4.00;;;3.00;99.90;;;;;;4992020;28;20507;-72
2023/03/08 08:09:40;;;;;;;6.07;4.53;;;3.00;99.90;;;;;;4978628;28;20255;-70
2023/03/08 08:12:06;;;;;;;5.93;4.53;;;3.00;99.90;;;;;;4997584;28;20233;-70
2023/03/08 08:14:32;;;;;;;7.50;5.67;;;3.00;99.90;;;;;;5017573;28;20237;-71
2023/03/08 08:17:00;;;;;;;7.63;5.37;;;3.10;99.90;;;;;;5017755;28;20289;-70
2023/03/08 08:19:28;;;;;;;6.93;5.17;;;3.10;99.90;;;;;;5007016;28;20204;-69
2023/03/08 08:21:58;;;;;;;5.80;4.50;;;3.10;99.90;;;;;;4997715;28;20207;-69
2023/03/08 08:24:25;;;;;;;7.10;5.37;;;3.20;99.90;;;;;;4998489;28;20171;-69
2023/03/08 08:26:50;;;;;;;6.70;4.97;;;3.10;99.90;;;;;;5017537;28;20222;-69
2023/03/08 08:29:16;;;;;;;6.37;5.20;;;3.20;99.90;;;;;;5012421;28;20180;-70
2023/03/08 08:31:41;;;;;;;7.37;4.90;;;3.30;99.90;;;;;;4998531;28;20175;-66
2023/03/08 08:34:10;;;;;;;8.17;6.23;;;3.30;99.90;;;;;;5017399;28;20174;-72
2023/03/08 08:36:35;;;;;;;10.00;7.73;;;3.30;99.90;;;;;;5014622;28;20211;-71
2023/03/08 08:39:02;;;;;;;8.43;6.77;;;3.40;99.90;;;;;;4993532;28;20195;-71
2023/03/08 08:41:32;;;;;;;11.20;7.37;;;3.40;99.90;;;;;;4995228;28;20244;-69
2023/03/08 08:44:02;;;;;;;8.20;6.20;;;3.40;99.90;;;;;;4993626;28;20172;-70
2023/03/08 08:46:29;;;;;;;10.33;6.93;;;3.30;99.90;;;;;;4992946;28;20231;-66
2023/03/08 08:48:59;;;;;;;10.97;7.97;;;3.30;99.90;;;;;;4995143;28;20198;-72
2023/03/08 08:51:25;;;;;;;10.23;7.70;;;3.30;99.90;;;;;;4994279;28;20191;-73
2023/03/08 08:53:52;;;;;;;9.43;6.33;;;3.30;99.90;;;;;;4996464;28;20266;-71
2023/03/08 08:56:24;;;;;;;9.63;6.77;;;3.30;99.90;;;;;;4992410;28;20219;-72
2023/03/08 08:58:50;;;;;;;7.93;6.30;;;3.30;99.90;;;;;;4995182;28;20200;-69
2023/03/08 09:01:22;;;;;;;7.17;5.90;;;3.30;99.90;;;;;;5009382;28;20202;-70
2023/03/08 09:03:48;;;;;;;7.80;6.00;;;3.30;99.90;;;;;;4995729;28;20207;-72
2023/03/08 09:06:16;;;;;;;7.10;5.67;;;3.40;99.90;;;;;;4995531;28;20171;-71
2023/03/08 09:08:44;;;;;;;7.63;5.93;;;3.40;99.90;;;;;;4997776;28;20171;-73
2023/03/08 09:11:10;;;;;;;7.80;5.73;;;3.40;99.90;;;;;;4996555;28;20199;-73
2023/03/08 09:13:41;;;;;;;7.23;5.57;;;3.40;99.90;;;;;;4996716;28;20183;-73
2023/03/08 09:16:16;;;;;;;7.57;5.57;;;3.50;99.90;;;;;;4996876;28;20210;-74
2023/03/08 09:18:41;;;;;;;7.83;5.77;;;3.50;99.90;;;;;;4996931;28;20166;-73
2023/03/08 09:21:07;;;;;;;7.83;5.07;;;3.50;99.90;;;;;;4996327;28;20222;-72
2023/03/08 09:23:35;;;;;;;8.63;6.47;;;3.50;99.90;;;;;;5013137;28;20198;-73
2023/03/08 09:26:05;;;;;;;7.60;5.53;;;3.50;99.90;;;;;;5016489;28;20178;-71
2023/03/08 09:28:31;;;;;;;9.17;6.23;;;3.60;99.90;;;;;;5016568;28;20174;-71
2023/03/08 09:31:11;;;;;;;8.07;5.77;;;3.60;99.90;;;;;;5016880;28;20206;-70
2023/03/08 09:33:42;;;;;;;8.60;6.33;;;3.60;99.90;;;;;;5014690;28;20276;-70
2023/03/08 09:36:10;;;;;;;7.67;6.17;;;3.60;99.90;;;;;;5004616;28;20209;-67
2023/03/08 09:38:39;;;;;;;7.97;6.73;;;3.70;99.90;;;;;;4993720;28;20211;-67
2023/03/08 09:41:32;;;;;;;7.30;5.87;;;3.70;99.90;;;;;;4991307;28;20190;-70
2023/03/08 09:44:42;;;;;;;7.97;5.87;;;3.70;99.90;;;;;;4990070;28;20203;-71
2023/03/08 09:47:27;;;;;;;7.20;5.60;;;3.80;99.90;;;;;;4934365;29;20213;-70
2023/03/08 09:49:58;;;;;;;9.10;6.13;;;3.80;99.90;;;;;;4992717;28;20202;-72
2023/03/08 09:52:38;;;;;;;9.23;6.60;;;3.80;99.90;;;;;;4992654;28;20227;-71
2023/03/08 09:55:17;;;;;;;9.67;7.10;;;3.90;99.90;;;;;;4992096;28;20217;-70
2023/03/08 09:57:54;;;;;;;8.43;6.50;;;3.90;99.90;;;;;;5009111;28;20236;-71
2023/03/08 10:00:27;;;;;;;10.57;7.97;;;3.90;99.90;;;;;;4992258;28;20257;-72
2023/03/08 10:03:13;;;;;;;10.93;7.90;;;4.00;99.90;;;;;;4995155;28;20172;-66
2023/03/08 10:05:52;;;;;;;10.27;7.40;;;4.00;99.90;;;;;;4991581;28;20214;-71
2023/03/08 10:08:23;;;;;;;10.77;8.37;;;4.00;99.90;;;;;;4992645;28;20222;-73
2023/03/08 10:11:04;;;;;;;11.70;8.30;;;4.10;99.90;;;;;;4993843;28;20254;-72
2023/03/08 10:13:32;;;;;;;10.97;8.60;;;4.20;99.90;;;;;;4995674;28;20301;-72
2023/03/08 10:16:21;;;;;;;11.10;8.20;;;4.30;99.90;;;;;;4980530;28;20207;-71
2023/03/08 10:19:27;;;;;;;10.27;7.70;;;4.30;99.90;;;;;;4996267;28;20171;-72
2023/03/08 10:22:04;;;;;;;11.17;7.93;;;4.30;99.90;;;;;;5011959;28;20220;-69
2023/03/08 10:24:51;;;;;;;10.70;7.83;;;4.40;99.90;;;;;;4995467;28;20210;-73
2023/03/08 10:27:33;;;;;;;8.93;6.53;;;4.40;99.90;;;;;;4994804;28;20203;-72
2023/03/08 10:30:00;;;;;;;8.67;6.97;;;4.50;99.90;;;;;;4995144;28;20198;-72
2023/03/08 10:32:27;;;;;;;9.83;7.40;;;4.50;99.90;;;;;;4994968;28;20199;-73
2023/03/08 10:35:01;;;;;;;7.87;6.53;;;4.50;99.90;;;;;;4995137;28;20221;-72
2023/03/08 10:37:31;;;;;;;9.23;7.23;;;4.50;99.90;;;;;;4993464;28;20199;-73
2023/03/08 10:40:04;;;;;;;8.60;6.53;;;4.60;99.90;;;;;;4994191;28;20200;-72
2023/03/08 10:42:32;;;;;;;8.63;7.00;;;4.60;99.90;;;;;;4991760;28;20206;-74
2023/03/08 10:45:19;;;;;;;9.60;6.57;;;4.60;99.90;;;;;;4990992;28;20164;-72
2023/03/08 10:48:00;;;;;;;8.20;6.53;;;4.70;99.90;;;;;;4990506;28;20180;-74
2023/03/08 10:50:39;;;;;;;8.37;6.70;;;4.70;99.90;;;;;;4991257;28;20233;-71
2023/03/08 10:53:18;;;;;;;9.87;7.00;;;4.70;99.90;;;;;;4986538;28;20194;-72
2023/03/08 10:55:47;;;;;;;9.00;6.87;;;4.80;99.90;;;;;;4988921;28;20179;-68
2023/03/08 10:58:42;;;;;;;9.33;7.03;;;4.80;99.90;;;;;;4991746;28;20195;-71
2023/03/08 11:01:31;;;;;;;7.03;5.83;;;4.90;99.90;;;;;;4974753;28;20196;-69
2023/03/08 11:04:01;;;;;;;8.30;6.47;;;4.90;99.90;;;;;;4990649;28;20178;-73
2023/03/08 11:06:30;;;;;;;7.83;6.10;;;5.00;99.90;;;;;;4989480;28;20230;-72
2023/03/08 11:08:58;;;;;;;8.40;6.80;;;5.00;99.90;;;;;;4993212;28;20179;-71
2023/03/08 11:11:29;;;;;;;6.77;6.03;;;5.10;99.90;;;;;;4991858;28;20203;-70
2023/03/08 11:13:55;;;;;;;6.43;5.80;;;5.10;99.90;;;;;;5007775;28;20480;-72
2023/03/08 11:16:42;;;;;;;8.13;6.23;;;5.10;99.90;;;;;;4989935;28;20287;-71
2023/03/08 11:19:59;;;;;;;7.67;6.50;;;5.10;99.90;;;;;;4990375;28;20176;-72
2023/03/08 11:22:30;;;;;;;7.47;6.57;;;5.20;99.90;;;;;;4967850;28;20187;-72
2023/03/08 11:25:08;;;;;;;9.50;6.57;;;5.20;99.90;;;;;;4990340;28;20258;-72
2023/03/08 11:27:45;;;;;;;9.33;7.37;;;5.30;99.90;;;;;;4988974;28;20179;-71
2023/03/08 11:30:28;;;;;;;8.57;6.90;;;5.40;99.90;;;;;;4989934;28;20236;-71
2023/03/08 11:33:02;;;;;;;11.10;8.13;;;5.50;99.90;;;;;;5004779;28;20182;-73
2023/03/08 11:35:41;;;;;;;8.60;7.13;;;5.50;99.90;;;;;;5008744;28;20179;-71
2023/03/08 11:38:31;;;;;;;9.27;7.70;;;5.60;99.90;;;;;;4993123;28;20182;-72
2023/03/08 11:41:08;;;;;;;9.77;8.20;;;5.70;99.90;;;;;;4986222;28;20176;-69
2023/03/08 11:44:15;;;;;;;10.73;8.70;;;5.80;99.90;;;;;;5010197;28;20210;-72
2023/03/08 11:46:55;;;;;;;9.27;7.83;;;5.90;99.90;;;;;;4936129;28;20295;-73
2023/03/08 11:49:29;;;;;;;9.03;7.93;;;6.20;99.90;;;;;;5003182;28;20207;-69
2023/03/08 11:52:16;;;;;;;9.57;7.77;;;6.30;99.90;;;;;;4995008;28;20186;-74
2023/03/08 11:55:06;;;;;;;8.50;7.20;;;6.50;99.90;;;;;;4995777;28;20239;-70
2023/03/08 11:57:37;;;;;;;8.77;7.40;;;6.60;99.90;;;;;;5008291;28;20352;-72
2023/03/08 12:00:21;;;;;;;7.50;6.70;;;6.70;99.90;;;;;;4979238;28;20179;-72
2023/03/08 12:02:48;;;;;;;9.00;7.60;;;6.80;99.90;;;;;;4989857;28;20202;-73
2023/03/08 12:05:47;;;;;;;8.10;7.07;;;6.90;99.90;;;;;;4995257;28;20176;-73
2023/03/08 12:08:22;;;;;;;10.10;7.17;;;7.00;99.90;;;;;;4996444;28;20215;-74
2023/03/08 12:11:02;;;;;;;7.73;6.43;;;7.20;99.90;;;;;;4997127;28;20183;-74
2023/03/08 12:13:33;;;;;;;7.40;6.50;;;7.20;99.90;;;;;;4997331;28;20183;-71
2023/03/08 12:16:20;;;;;;;7.37;6.57;;;7.30;99.90;;;;;;4997305;28;20167;-70
2023/03/08 12:19:16;;;;;;;7.40;6.60;;;7.40;99.90;;;;;;5016248;28;20205;-72
2023/03/08 12:21:52;;;;;;;8.10;6.97;;;7.50;99.90;;;;;;5016918;28;20167;-72
2023/03/08 12:24:36;;;;;;;7.27;6.37;;;7.60;99.90;;;;;;5032869;28;20182;-72
2023/03/08 12:27:11;;;;;;;7.53;6.73;;;7.70;99.90;;;;;;5030103;28;20210;-71
2023/03/08 12:29:51;;;;;;;7.30;6.40;;;7.90;99.90;;;;;;4997301;28;20183;-72
2023/03/08 12:32:20;;;;;;;7.23;6.37;;;8.10;99.90;;;;;;5016621;28;20181;-74
2023/03/08 12:34:46;;;;;;;6.70;6.00;;;8.20;99.90;;;;;;5016804;28;20221;-72
2023/03/08 12:37:41;;;;;;;6.17;5.30;;;8.30;99.90;;;;;;4994227;28;20187;-77
2023/03/08 12:40:35;;;;;;;6.83;6.13;;;8.30;99.90;;;;;;4986168;28;20212;-72
2023/03/08 12:43:20;;;;;;;6.03;5.43;;;8.30;99.90;;;;;;5009271;28;20254;-72
2023/03/08 12:46:08;;;;;;;6.57;5.63;;;8.30;99.90;;;;;;5003867;28;20210;-71
2023/03/08 12:48:45;;;;;;;5.37;4.87;;;8.30;99.90;;;;;;4991130;28;20183;-71
2023/03/08 12:51:11;;;;;;;6.17;5.57;;;8.30;99.90;;;;;;5004658;28;20188;-72
2023/03/08 12:53:39;;;;;;;5.70;5.10;;;8.30;99.90;;;;;;4989651;28;20189;-73
2023/03/08 12:56:13;;;;;;;5.23;4.73;;;8.20;99.90;;;;;;5007149;28;20303;-72
2023/03/08 12:58:54;;;;;;;5.27;4.70;;;8.20;99.90;;;;;;4992712;28;20225;-70
2023/03/08 13:01:38;;;;;;;5.73;5.10;;;8.20;99.90;;;;;;4988883;28;20212;-72
2023/03/08 13:04:27;;;;;;;6.10;5.50;;;8.10;99.90;;;;;;5009896;28;20282;-72
2023/03/08 13:07:01;;;;;;;5.73;5.07;;;8.20;99.90;;;;;;4985337;28;20452;-72
2023/03/08 13:09:31;;;;;;;4.90;4.40;;;8.20;99.90;;;;;;5007118;28;20190;-73
2023/03/08 13:12:23;;;;;;;4.73;4.27;;;8.20;99.90;;;;;;4993724;28;20234;-72
2023/03/08 13:15:17;;;;;;;6.20;4.60;;;8.20;99.90;;;;;;4995706;28;20274;-72
2023/03/08 13:18:10;;;;;;;4.40;4.00;;;8.10;99.90;;;;;;5007386;28;20466;-74